Terminal Aerodrome Forecast
Issued by NWS

Home | Current Version | Previous Version | Text Only | Print | Product List | Glossary On
Versions: 1 2 3 4 5 6 7 8 9 10 11 12 13 14 15 16 17 18 19 20 21 22
000
FTAK31 PAFA 251616 AAB
TAFAOM
TAF AMD
PAOM 251616Z 2516/2612 22013KT 5SM -SN BR BKN005 OVC018
     FM251900 23008KT 6SM -SHRA SCT007 OVC015
     FM260000 24009KT P6SM -SHRA BKN025 OVC050
     FM260700 17016KT 1SM -RA BR SCT007 BKN015 OVC025=

USA.gov is the U.S. government's official web portal to all federal, state and local government web resources and services.